createdAt,value
2023-05-14T00:00:48.347Z,1016.08
2023-05-14T00:02:33.404Z,1016.14
2023-05-14T00:04:18.316Z,1016.12
2023-05-14T00:06:03.348Z,1015.97
2023-05-14T00:07:48.331Z,1016.08
2023-05-14T00:09:33.308Z,1016.05
2023-05-14T00:11:18.305Z,1016.05
2023-05-14T00:13:03.310Z,1016.03
2023-05-14T00:14:48.365Z,1016.02
2023-05-14T00:16:33.398Z,1016.01
2023-05-14T00:18:18.320Z,1015.94
2023-05-14T00:20:03.337Z,1016.02
2023-05-14T00:21:48.336Z,1015.9
2023-05-14T00:23:33.323Z,1015.95
2023-05-14T00:25:18.310Z,1015.95
2023-05-14T00:27:03.391Z,1015.95
2023-05-14T00:28:48.344Z,1015.98
2023-05-14T00:30:33.354Z,1015.87
2023-05-14T00:32:18.369Z,1015.85
2023-05-14T00:34:03.346Z,1015.85
2023-05-14T00:35:48.316Z,1015.93
2023-05-14T00:37:33.385Z,1015.78
2023-05-14T00:39:18.354Z,1015.84
2023-05-14T00:41:03.335Z,1015.83
2023-05-14T00:42:48.396Z,1015.84
2023-05-14T00:44:33.369Z,1015.79
2023-05-14T00:46:18.410Z,1015.82
2023-05-14T00:48:03.378Z,1015.77
2023-05-14T00:49:48.385Z,1015.71
2023-05-14T00:51:33.347Z,1015.7
2023-05-14T00:53:18.399Z,1015.71
2023-05-14T00:55:03.359Z,1015.67
2023-05-14T00:56:48.383Z,1015.69
2023-05-14T00:58:33.387Z,1015.72
2023-05-14T01:00:18.359Z,1015.71
2023-05-14T01:02:03.409Z,1015.73
2023-05-14T01:03:48.515Z,1015.63
2023-05-14T01:05:33.375Z,1015.67
2023-05-14T01:07:18.401Z,1015.58
2023-05-14T01:09:03.396Z,1015.63
2023-05-14T01:10:48.390Z,1015.62
2023-05-14T01:12:33.393Z,1015.55
2023-05-14T01:14:18.418Z,1015.53
2023-05-14T01:16:03.409Z,1015.56
2023-05-14T01:17:48.487Z,1015.55
2023-05-14T01:19:33.409Z,1015.59
2023-05-14T01:21:18.444Z,1015.62
2023-05-14T01:23:03.407Z,1015.59
2023-05-14T01:24:48.447Z,1015.57
2023-05-14T01:26:33.464Z,1015.64
2023-05-14T01:28:18.426Z,1015.58
2023-05-14T01:30:03.461Z,1015.64
2023-05-14T01:31:48.464Z,1015.67
2023-05-14T01:33:33.460Z,1015.71
2023-05-14T01:35:18.476Z,1015.65
2023-05-14T01:37:03.428Z,1015.6
2023-05-14T01:38:48.440Z,1015.63
2023-05-14T01:40:33.474Z,1015.55
2023-05-14T01:42:18.433Z,1015.58
2023-05-14T01:44:03.455Z,1015.56
2023-05-14T01:45:48.490Z,1015.58
2023-05-14T01:47:33.735Z,1015.54
2023-05-14T01:49:18.477Z,1015.51
2023-05-14T01:51:03.532Z,1015.48
2023-05-14T01:52:48.426Z,1015.52
2023-05-14T01:54:33.439Z,1015.45
2023-05-14T01:56:18.507Z,1015.43
2023-05-14T01:58:03.436Z,1015.43
2023-05-14T01:59:48.447Z,1015.42
2023-05-14T02:01:33.505Z,1015.44
2023-05-14T02:03:18.443Z,1015.48
2023-05-14T02:05:04.898Z,1015.42
2023-05-14T02:06:48.499Z,1015.35
2023-05-14T02:08:33.749Z,1015.36
2023-05-14T02:10:18.438Z,1015.4
2023-05-14T02:12:03.535Z,1015.42
2023-05-14T02:13:48.457Z,1015.44
2023-05-14T02:15:33.468Z,1015.36
2023-05-14T02:17:18.493Z,1015.39
2023-05-14T02:19:03.512Z,1015.44
2023-05-14T02:20:48.504Z,1015.44
2023-05-14T02:22:33.551Z,1015.42
2023-05-14T02:24:18.501Z,1015.48
2023-05-14T02:26:03.471Z,1015.33
2023-05-14T02:27:48.528Z,1015.4
2023-05-14T02:29:33.774Z,1015.39
2023-05-14T02:31:18.820Z,1015.42
2023-05-14T02:33:03.626Z,1015.46
2023-05-14T02:34:48.499Z,1015.36
2023-05-14T02:36:33.513Z,1015.39
2023-05-14T02:38:18.832Z,1015.37
2023-05-14T02:40:03.510Z,1015.36
2023-05-14T02:41:48.515Z,1015.33
2023-05-14T02:43:33.585Z,1015.41
2023-05-14T02:45:18.503Z,1015.26
2023-05-14T02:47:03.538Z,1015.36
2023-05-14T02:48:48.569Z,1015.37
2023-05-14T02:50:33.535Z,1015.25
2023-05-14T02:52:18.572Z,1015.39
2023-05-14T02:54:03.576Z,1015.41
2023-05-14T02:55:48.540Z,1015.43
2023-05-14T02:57:33.528Z,1015.33
2023-05-14T02:59:18.557Z,1015.36
2023-05-14T03:01:03.615Z,1015.25
2023-05-14T03:02:48.614Z,1015.27
2023-05-14T03:04:33.630Z,1015.33
2023-05-14T03:06:18.540Z,1015.34
2023-05-14T03:08:03.571Z,1015.43
2023-05-14T03:09:48.569Z,1015.34
2023-05-14T03:11:33.548Z,1015.37
2023-05-14T03:13:18.581Z,1015.36
2023-05-14T03:15:03.610Z,1015.22
2023-05-14T03:16:48.626Z,1015.29
2023-05-14T03:18:33.581Z,1015.35
2023-05-14T03:20:18.606Z,1015.23
2023-05-14T03:22:03.599Z,1015.31
2023-05-14T03:23:48.602Z,1015.33
2023-05-14T03:25:33.640Z,1015.29
2023-05-14T03:27:18.609Z,1015.26
2023-05-14T03:29:03.582Z,1015.25
2023-05-14T03:30:48.649Z,1015.16
2023-05-14T03:32:33.584Z,1015.23
2023-05-14T03:34:18.599Z,1015.3
2023-05-14T03:36:03.659Z,1015.21
2023-05-14T03:37:48.598Z,1015.16
2023-05-14T03:39:33.947Z,1015.22
2023-05-14T03:41:18.657Z,1015.16
2023-05-14T03:43:03.618Z,1015.2
2023-05-14T03:44:48.634Z,1015.24
2023-05-14T03:46:33.983Z,1015.15
2023-05-14T03:48:18.654Z,1015.16
2023-05-14T03:50:03.623Z,1015.15
2023-05-14T03:51:48.687Z,1015.15
2023-05-14T03:53:33.616Z,1015.17
2023-05-14T03:55:18.663Z,1015.28
2023-05-14T03:57:03.648Z,1015.15
2023-05-14T03:58:48.637Z,1015.25
2023-05-14T04:00:33.662Z,1015.24
2023-05-14T04:02:19.036Z,1015.25
2023-05-14T04:04:03.712Z,1015.13
2023-05-14T04:05:48.643Z,1015.17
2023-05-14T04:07:33.660Z,1015.12
2023-05-14T04:09:18.633Z,1015.22
2023-05-14T04:11:03.681Z,1015.11
2023-05-14T04:12:48.769Z,1015.13
2023-05-14T04:14:33.664Z,1015.16
2023-05-14T04:16:18.711Z,1015.17
2023-05-14T04:18:03.753Z,1015.17
2023-05-14T04:19:48.671Z,1015.18
2023-05-14T04:21:33.691Z,1015.05
2023-05-14T04:23:18.721Z,1015.02
2023-05-14T04:25:03.663Z,1015.05
2023-05-14T04:26:48.710Z,1015.11
2023-05-14T04:28:33.711Z,1015.03
2023-05-14T04:30:18.682Z,1015.07
2023-05-14T04:32:03.806Z,1015.01
2023-05-14T04:33:48.772Z,1015.06
2023-05-14T04:35:33.693Z,1015.07
2023-05-14T04:37:18.680Z,1015
2023-05-14T04:39:03.731Z,1015.01
2023-05-14T04:40:48.681Z,1014.91
2023-05-14T04:42:33.855Z,1014.97
2023-05-14T04:44:18.773Z,1014.97
2023-05-14T04:46:03.719Z,1015.01
2023-05-14T04:47:48.751Z,1015.1
2023-05-14T04:49:33.768Z,1015.03
2023-05-14T04:51:18.708Z,1015.07
2023-05-14T04:53:03.715Z,1015.04
2023-05-14T04:54:48.805Z,1015.07
2023-05-14T04:56:33.736Z,1015.05
2023-05-14T04:58:18.749Z,1015
2023-05-14T05:00:03.752Z,1015.1
2023-05-14T05:01:48.783Z,1015.03
2023-05-14T05:03:33.747Z,1015.13
2023-05-14T05:05:18.798Z,1015.1
2023-05-14T05:07:03.752Z,1015.04
2023-05-14T05:08:48.740Z,1015.15
2023-05-14T05:10:33.845Z,1015.13
2023-05-14T05:12:18.762Z,1015.1
2023-05-14T05:14:03.772Z,1015.14
2023-05-14T05:15:48.863Z,1015.14
2023-05-14T05:17:33.780Z,1015.13
2023-05-14T05:19:19.738Z,1015.06
2023-05-14T05:21:03.847Z,1015.14
2023-05-14T05:22:48.797Z,1015.17
2023-05-14T05:24:33.789Z,1015.08
2023-05-14T05:26:18.850Z,1015.16
2023-05-14T05:28:03.769Z,1015.16
2023-05-14T05:29:48.808Z,1015.11
2023-05-14T05:31:33.826Z,1015.26
2023-05-14T05:33:18.795Z,1015.18
2023-05-14T05:35:03.788Z,1015.12
2023-05-14T05:36:48.891Z,1015.21
2023-05-14T05:38:33.783Z,1015.23
2023-05-14T05:40:18.797Z,1015.1
2023-05-14T05:42:03.893Z,1015.14
2023-05-14T05:43:48.793Z,1015.15
2023-05-14T05:45:33.830Z,1015.16
2023-05-14T05:47:18.895Z,1015.13
2023-05-14T05:49:03.807Z,1015.17
2023-05-14T05:50:48.835Z,1015.08
2023-05-14T05:52:33.893Z,1015.1
2023-05-14T05:54:18.822Z,1015.14
2023-05-14T05:56:03.848Z,1015.16
2023-05-14T05:57:48.852Z,1015.12
2023-05-14T05:59:33.797Z,1015.16
2023-05-14T06:01:18.874Z,1015.13
2023-05-14T06:03:03.881Z,1015.08
2023-05-14T06:04:48.864Z,1015.16
2023-05-14T06:06:33.851Z,1015.14
2023-05-14T06:08:18.910Z,1015.16
2023-05-14T06:10:03.842Z,1015.16
2023-05-14T06:11:48.847Z,1015.21
2023-05-14T06:13:33.884Z,1015.15
2023-05-14T06:15:18.850Z,1015.15
2023-05-14T06:17:04.191Z,1015.12
2023-05-14T06:18:48.913Z,1015.15
2023-05-14T06:20:33.864Z,1015.15
2023-05-14T06:22:18.852Z,1015.15
2023-05-14T06:24:03.934Z,1015.19
2023-05-14T06:25:50.581Z,1015.2
2023-05-14T06:27:34.170Z,1015.23
2023-05-14T06:29:18.923Z,1015.22
2023-05-14T06:31:03.861Z,1015.29
2023-05-14T06:32:48.886Z,1015.36
2023-05-14T06:34:33.925Z,1015.32
2023-05-14T06:36:18.906Z,1015.28
2023-05-14T06:38:03.902Z,1015.31
2023-05-14T06:39:48.924Z,1015.22
2023-05-14T06:41:33.906Z,1015.24
2023-05-14T06:43:18.889Z,1015.26
2023-05-14T06:45:03.894Z,1015.3
2023-05-14T06:46:48.895Z,1015.25
2023-05-14T06:48:33.969Z,1015.34
2023-05-14T06:50:18.951Z,1015.36
2023-05-14T06:52:03.889Z,1015.2
2023-05-14T06:53:48.900Z,1015.24
2023-05-14T06:55:33.947Z,1015.19
2023-05-14T06:57:18.931Z,1015.21
2023-05-14T06:59:03.904Z,1015.1
2023-05-14T07:00:49.002Z,1015.14
2023-05-14T07:02:33.953Z,1015.07
2023-05-14T07:04:18.978Z,1015.16
2023-05-14T07:06:03.970Z,1015.2
2023-05-14T07:07:48.915Z,1015.1
2023-05-14T07:09:33.938Z,1015.11
2023-05-14T07:11:18.994Z,1015.14
2023-05-14T07:13:03.942Z,1015.17
2023-05-14T07:14:48.915Z,1015.24
2023-05-14T07:16:33.986Z,1015.17
2023-05-14T07:18:18.943Z,1015.18
2023-05-14T07:20:03.955Z,1015.18
2023-05-14T07:21:49.005Z,1015.27
2023-05-14T07:23:33.922Z,1015.17
2023-05-14T07:25:18.950Z,1015.26
2023-05-14T07:27:03.990Z,1015.28
2023-05-14T07:28:48.965Z,1015.15
2023-05-14T07:30:33.943Z,1015.25
2023-05-14T07:32:18.953Z,1015.18
2023-05-14T07:34:03.975Z,1015.11
2023-05-14T07:35:48.971Z,1015.17
2023-05-14T07:37:34.008Z,1015.19
2023-05-14T07:39:18.976Z,1015.07
2023-05-14T07:41:03.971Z,1015.25
2023-05-14T07:42:49.040Z,1015.19
2023-05-14T07:44:33.978Z,1015.21
2023-05-14T07:46:18.959Z,1015.17
2023-05-14T07:48:04.108Z,1015.2
2023-05-14T07:49:49.272Z,1015.17
2023-05-14T07:51:34.041Z,1015.17
2023-05-14T07:53:19.038Z,1015.08
2023-05-14T07:55:03.971Z,1015.09
2023-05-14T07:56:49.013Z,1015.12
2023-05-14T07:58:34.044Z,1015.02
2023-05-14T08:00:19.044Z,1015.11
2023-05-14T08:02:04.029Z,1015.12
2023-05-14T08:03:49.134Z,1015.1
2023-05-14T08:05:33.993Z,1015.25
2023-05-14T08:07:19.062Z,1015.12
2023-05-14T08:09:04.037Z,1015.16
2023-05-14T08:10:49.055Z,1015.12
2023-05-14T08:12:34.335Z,1015.13
2023-05-14T08:14:19.072Z,1015.21
2023-05-14T08:16:04.033Z,1015.17
2023-05-14T08:17:49.064Z,1015.09
2023-05-14T08:19:34.061Z,1015.19
2023-05-14T08:21:19.040Z,1015.1
2023-05-14T08:23:04.068Z,1015.07
2023-05-14T08:24:49.089Z,1015.08
2023-05-14T08:26:34.057Z,1015.16
2023-05-14T08:28:19.043Z,1015.19
2023-05-14T08:30:04.120Z,1015.13
2023-05-14T08:31:49.053Z,1015.23
2023-05-14T08:33:34.025Z,1015.16
2023-05-14T08:35:19.131Z,1015.14
2023-05-14T08:37:04.040Z,1015.15
2023-05-14T08:38:49.081Z,1015.12
2023-05-14T08:40:34.116Z,1015.09
2023-05-14T08:42:19.071Z,1015.14
2023-05-14T08:44:04.065Z,1015.16
2023-05-14T08:45:49.409Z,1015.09
2023-05-14T08:47:34.076Z,1015.02
2023-05-14T08:49:19.053Z,1014.94
2023-05-14T08:51:04.137Z,1015.01
2023-05-14T08:52:49.068Z,1015.01
2023-05-14T08:54:34.099Z,1014.97
2023-05-14T08:56:19.098Z,1014.97
2023-05-14T08:58:04.091Z,1014.85
2023-05-14T08:59:49.101Z,1014.92
2023-05-14T09:01:34.133Z,1014.95
2023-05-14T09:03:19.095Z,1014.92
2023-05-14T09:05:04.088Z,1014.98
2023-05-14T09:06:49.159Z,1014.9
2023-05-14T09:08:34.092Z,1014.96
2023-05-14T09:10:19.118Z,1014.88
2023-05-14T09:12:04.465Z,1014.91
2023-05-14T09:13:49.122Z,1014.85
2023-05-14T09:15:34.098Z,1014.84
2023-05-14T09:17:19.185Z,1014.84
2023-05-14T09:19:04.161Z,1014.84
2023-05-14T09:20:49.437Z,1014.81
2023-05-14T09:22:34.138Z,1014.83
2023-05-14T09:24:19.119Z,1014.82
2023-05-14T09:26:04.240Z,1014.74
2023-05-14T09:27:49.249Z,1014.8
2023-05-14T09:29:34.119Z,1014.72
2023-05-14T09:31:19.132Z,1014.77
2023-05-14T09:33:04.248Z,1014.66
2023-05-14T09:34:49.145Z,1014.7
2023-05-14T09:36:34.109Z,1014.71
2023-05-14T09:38:19.213Z,1014.68
2023-05-14T09:40:04.145Z,1014.68
2023-05-14T09:41:49.322Z,1014.64
2023-05-14T09:43:34.181Z,1014.63
2023-05-14T09:45:19.459Z,1014.67
2023-05-14T09:47:04.134Z,1014.63
2023-05-14T09:48:49.206Z,1014.51
2023-05-14T09:50:34.157Z,1014.55
2023-05-14T09:52:19.160Z,1014.47
2023-05-14T09:54:04.189Z,1014.48
2023-05-14T09:55:49.173Z,1014.58
2023-05-14T09:57:34.198Z,1014.49
2023-05-14T09:59:19.228Z,1014.48
2023-05-14T10:01:04.189Z,1014.51
2023-05-14T10:02:49.183Z,1014.45
2023-05-14T10:04:34.244Z,1014.47
2023-05-14T10:06:19.185Z,1014.41
2023-05-14T10:08:04.208Z,1014.43
2023-05-14T10:09:49.243Z,1014.41
2023-05-14T10:11:34.202Z,1014.44
2023-05-14T10:13:19.212Z,1014.41
2023-05-14T10:15:04.224Z,1014.39
2023-05-14T10:16:49.215Z,1014.25
2023-05-14T10:18:34.228Z,1014.28
2023-05-14T10:20:19.298Z,1014.32
2023-05-14T10:22:04.236Z,1014.42
2023-05-14T10:23:49.210Z,1014.31
2023-05-14T10:25:34.241Z,1014.28
2023-05-14T10:27:19.216Z,1014.26
2023-05-14T10:29:04.254Z,1014.24
2023-05-14T10:30:49.248Z,1014.29
2023-05-14T10:32:34.292Z,1014.27
2023-05-14T10:34:19.221Z,1014.19
2023-05-14T10:36:04.266Z,1014.28
2023-05-14T10:37:49.238Z,1014.2
2023-05-14T10:39:34.230Z,1014.3
2023-05-14T10:41:19.219Z,1014.23
2023-05-14T10:43:04.277Z,1014.23
2023-05-14T10:44:49.593Z,1014.15
2023-05-14T10:46:34.311Z,1014.18
2023-05-14T10:48:19.306Z,1014.31
2023-05-14T10:50:04.269Z,1014.22
2023-05-14T10:51:49.248Z,1014.14
2023-05-14T10:53:34.295Z,1014.18
2023-05-14T10:55:19.260Z,1014.08
2023-05-14T10:57:04.237Z,1014.12
2023-05-14T10:58:49.261Z,1014.17
2023-05-14T11:00:34.275Z,1014.11
2023-05-14T11:02:19.252Z,1014.01
2023-05-14T11:04:04.291Z,1014.14
2023-05-14T11:05:49.267Z,1014.07
2023-05-14T11:07:34.347Z,1014.06
2023-05-14T11:09:19.266Z,1014.01
2023-05-14T11:11:04.282Z,1014
2023-05-14T11:12:49.316Z,1013.99
2023-05-14T11:14:34.289Z,1014.01
2023-05-14T11:16:23.068Z,1013.99
2023-05-14T11:18:04.302Z,1013.93
2023-05-14T11:19:51.041Z,1013.89
2023-05-14T11:21:34.284Z,1013.94
2023-05-14T11:23:19.335Z,1013.93
2023-05-14T11:25:04.278Z,1013.87
2023-05-14T11:26:49.290Z,1013.89
2023-05-14T11:28:34.334Z,1013.88
2023-05-14T11:30:19.310Z,1013.92
2023-05-14T11:32:04.451Z,1013.82
2023-05-14T11:33:49.325Z,1013.84
2023-05-14T11:35:34.302Z,1013.84
2023-05-14T11:37:19.324Z,1013.72
2023-05-14T11:39:04.339Z,1013.76
2023-05-14T11:40:49.332Z,1013.65
2023-05-14T11:42:34.318Z,1013.69
2023-05-14T11:44:19.325Z,1013.64
2023-05-14T11:46:04.451Z,1013.67
2023-05-14T11:47:49.377Z,1013.7
2023-05-14T11:49:34.629Z,1013.66
2023-05-14T11:51:19.351Z,1013.73
2023-05-14T11:53:04.337Z,1013.6
2023-05-14T11:54:49.331Z,1013.71
2023-05-14T11:56:34.370Z,1013.58
2023-05-14T11:58:19.320Z,1013.67
2023-05-14T12:00:04.426Z,1013.64
2023-05-14T12:01:50.665Z,1013.7
2023-05-14T12:03:34.458Z,1013.55
2023-05-14T12:05:19.371Z,1013.59
2023-05-14T12:07:04.406Z,1013.41
2023-05-14T12:08:49.352Z,1013.52
2023-05-14T12:10:34.357Z,1013.46
2023-05-14T12:12:19.410Z,1013.42
2023-05-14T12:14:04.370Z,1013.6
2023-05-14T12:15:49.429Z,1013.52
2023-05-14T12:17:34.432Z,1013.6
2023-05-14T12:19:19.426Z,1013.65
2023-05-14T12:21:04.388Z,1013.6
2023-05-14T12:22:49.441Z,1013.57
2023-05-14T12:24:34.673Z,1013.5
2023-05-14T12:26:19.387Z,1013.44
2023-05-14T12:28:04.426Z,1013.44
2023-05-14T12:29:49.380Z,1013.46
2023-05-14T12:31:34.745Z,1013.38
2023-05-14T12:33:19.458Z,1013.27
2023-05-14T12:35:04.436Z,1013.31
2023-05-14T12:36:49.396Z,1013.34
2023-05-14T12:38:34.416Z,1013.32
2023-05-14T12:40:19.411Z,1013.28
2023-05-14T12:42:04.405Z,1013.26
2023-05-14T12:43:49.415Z,1013.29
2023-05-14T12:45:34.417Z,1013.23
2023-05-14T12:47:19.559Z,1013.18
2023-05-14T12:49:04.395Z,1013.29
2023-05-14T12:50:49.453Z,1013.16
2023-05-14T12:52:38.212Z,1013.22
2023-05-14T12:54:19.415Z,1013.17
2023-05-14T12:56:04.446Z,1013.03
2023-05-14T12:57:49.772Z,1013.13
2023-05-14T12:59:34.443Z,1013.09
2023-05-14T13:01:19.506Z,1013.06
2023-05-14T13:03:04.555Z,1013.11
2023-05-14T13:04:49.434Z,1013.1
2023-05-14T13:06:34.493Z,1013.06
2023-05-14T13:08:19.478Z,1013.02
2023-05-14T13:10:04.467Z,1012.96
2023-05-14T13:11:49.482Z,1013.05
2023-05-14T13:13:34.486Z,1012.95
2023-05-14T13:15:19.449Z,1013.07
2023-05-14T13:17:04.551Z,1013
2023-05-14T13:18:49.518Z,1012.93
2023-05-14T13:20:34.480Z,1012.9
2023-05-14T13:22:19.528Z,1012.87
2023-05-14T13:24:04.530Z,1012.92
2023-05-14T13:25:50.003Z,1012.93
2023-05-14T13:27:34.478Z,1012.82
2023-05-14T13:29:19.480Z,1012.9
2023-05-14T13:31:04.512Z,1012.95
2023-05-14T13:32:49.783Z,1012.88
2023-05-14T13:34:34.570Z,1012.79
2023-05-14T13:36:19.478Z,1012.85
2023-05-14T13:38:04.544Z,1012.84
2023-05-14T13:39:51.281Z,1012.82
2023-05-14T13:41:34.536Z,1012.84
2023-05-14T13:43:19.492Z,1012.75
2023-05-14T13:45:04.572Z,1012.82
2023-05-14T13:46:49.848Z,1012.75
2023-05-14T13:48:34.525Z,1012.71
2023-05-14T13:50:19.565Z,1012.65
2023-05-14T13:52:04.509Z,1012.73
2023-05-14T13:53:49.555Z,1012.65
2023-05-14T13:55:34.564Z,1012.68
2023-05-14T13:57:19.519Z,1012.68
2023-05-14T13:59:04.544Z,1012.57
2023-05-14T14:00:49.553Z,1012.58
2023-05-14T14:02:34.588Z,1012.6
2023-05-14T14:04:19.531Z,1012.52
2023-05-14T14:06:04.592Z,1012.49
2023-05-14T14:07:50.460Z,1012.57
2023-05-14T14:09:34.577Z,1012.59
2023-05-14T14:11:19.590Z,1012.59
2023-05-14T14:13:04.585Z,1012.56
2023-05-14T14:14:49.538Z,1012.52
2023-05-14T14:16:34.711Z,1012.55
2023-05-14T14:18:19.568Z,1012.47
2023-05-14T14:20:04.560Z,1012.53
2023-05-14T14:23:34.585Z,1012.59
2023-05-14T14:25:19.604Z,1012.48
2023-05-14T14:27:04.658Z,1012.4
2023-05-14T14:28:49.578Z,1012.46
2023-05-14T14:30:34.650Z,1012.4
2023-05-14T14:32:19.654Z,1012.38
2023-05-14T14:34:04.606Z,1012.44
2023-05-14T14:35:49.580Z,1012.4
2023-05-14T14:37:34.658Z,1012.38
2023-05-14T14:39:19.585Z,1012.52
2023-05-14T14:41:04.612Z,1012.41
2023-05-14T14:42:49.626Z,1012.4
2023-05-14T14:44:34.615Z,1012.38
2023-05-14T14:46:19.654Z,1012.39
2023-05-14T14:48:04.687Z,1012.41
2023-05-14T14:49:49.605Z,1012.35
2023-05-14T14:51:34.624Z,1012.32
2023-05-14T14:53:19.662Z,1012.33
2023-05-14T14:55:04.643Z,1012.21
2023-05-14T14:56:49.655Z,1012.22
2023-05-14T14:58:34.712Z,1012.29
2023-05-14T15:00:19.650Z,1012.2
2023-05-14T15:02:04.641Z,1012.2
2023-05-14T15:03:50.044Z,1012.28
2023-05-14T15:05:34.628Z,1012.18
2023-05-14T15:07:19.633Z,1012.22
2023-05-14T15:09:04.670Z,1012.19
2023-05-14T15:10:49.983Z,1012.26
2023-05-14T15:12:34.681Z,1012.26
2023-05-14T15:14:19.710Z,1012.25
2023-05-14T15:16:04.653Z,1012.23
2023-05-14T15:17:49.672Z,1012.19
2023-05-14T15:19:34.674Z,1012.12
2023-05-14T15:21:19.637Z,1012.15
2023-05-14T15:23:04.657Z,1012.26
2023-05-14T15:24:49.716Z,1012.21
2023-05-14T15:26:34.670Z,1012.22
2023-05-14T15:28:19.683Z,1012.11
2023-05-14T15:30:04.758Z,1012.13
2023-05-14T15:31:49.737Z,1012.18
2023-05-14T15:33:34.661Z,1012.17
2023-05-14T15:35:19.732Z,1012.16
2023-05-14T15:37:04.695Z,1012.06
2023-05-14T15:38:49.680Z,1012.13
2023-05-14T15:40:34.740Z,1012.1
2023-05-14T15:42:19.686Z,1012.13
2023-05-14T15:44:04.988Z,1012.1
2023-05-14T15:45:49.719Z,1012.1
2023-05-14T15:47:34.698Z,1012.07
2023-05-14T15:49:19.699Z,1012.1
2023-05-14T15:51:04.747Z,1012.03
2023-05-14T15:52:49.682Z,1012.1
2023-05-14T15:54:34.682Z,1012.02
2023-05-14T15:56:19.728Z,1012.09
2023-05-14T15:58:04.696Z,1012.13
2023-05-14T15:59:49.730Z,1012.04
2023-05-14T16:01:34.791Z,1012.15
2023-05-14T16:03:19.764Z,1012.13
2023-05-14T16:05:04.698Z,1012.12
2023-05-14T16:06:49.726Z,1012.16
2023-05-14T16:08:34.715Z,1012.08
2023-05-14T16:10:19.720Z,1012.17
2023-05-14T16:12:04.760Z,1012.17
2023-05-14T16:13:49.745Z,1012.09
2023-05-14T16:15:34.759Z,1012.13
2023-05-14T16:17:19.765Z,1012.23
2023-05-14T16:19:04.800Z,1012.15
2023-05-14T16:20:49.737Z,1012.11
2023-05-14T16:22:34.847Z,1012.12
2023-05-14T16:24:19.741Z,1012.18
2023-05-14T16:26:04.784Z,1012.16
2023-05-14T16:27:49.785Z,1012.05
2023-05-14T16:29:34.770Z,1012.11
2023-05-14T16:31:19.786Z,1012.12
2023-05-14T16:33:04.873Z,1012.11
2023-05-14T16:34:49.791Z,1012.12
2023-05-14T16:36:34.783Z,1012.14
2023-05-14T16:38:20.101Z,1011.98
2023-05-14T16:40:04.755Z,1012
2023-05-14T16:41:49.757Z,1012.03
2023-05-14T16:43:34.792Z,1012.04
2023-05-14T16:45:19.757Z,1012.04
2023-05-14T16:47:04.780Z,1012.07
2023-05-14T16:48:49.804Z,1012.02
2023-05-14T16:50:34.789Z,1012.1
2023-05-14T16:52:19.792Z,1012.06
2023-05-14T16:54:04.840Z,1012.06
2023-05-14T16:55:49.792Z,1012.13
2023-05-14T16:57:34.798Z,1012.14
2023-05-14T16:59:19.833Z,1012.04
2023-05-14T17:01:05.889Z,1012.07
2023-05-14T17:02:49.888Z,1012.01
2023-05-14T17:04:34.905Z,1012.11
2023-05-14T17:06:19.794Z,1012.06
2023-05-14T17:08:04.803Z,1012
2023-05-14T17:09:49.845Z,1012.07
2023-05-14T17:11:34.789Z,1012.08
2023-05-14T17:13:19.833Z,1011.99
2023-05-14T17:15:05.527Z,1012.13
2023-05-14T17:16:49.796Z,1012.15
2023-05-14T17:18:34.874Z,1012.08
2023-05-14T17:20:19.855Z,1012.1
2023-05-14T17:22:04.833Z,1012.08
2023-05-14T17:23:49.842Z,1011.99
2023-05-14T17:25:35.196Z,1012.08
2023-05-14T17:27:19.848Z,1012.12
2023-05-14T17:29:05.470Z,1012.05
2023-05-14T17:30:49.905Z,1012.03
2023-05-14T17:32:34.930Z,1012.09
2023-05-14T17:34:19.878Z,1012.02
2023-05-14T17:36:04.875Z,1012.22
2023-05-14T17:37:49.840Z,1012.12
2023-05-14T17:39:34.851Z,1012.17
2023-05-14T17:41:19.942Z,1012.21
2023-05-14T17:43:04.860Z,1012.12
2023-05-14T17:44:49.850Z,1012.18
2023-05-14T17:46:34.923Z,1012.16
2023-05-14T17:48:19.875Z,1012.14
2023-05-14T17:50:04.901Z,1012.11
2023-05-14T17:51:49.945Z,1012.11
2023-05-14T17:53:35.168Z,1012.17
2023-05-14T17:55:19.893Z,1012.19
2023-05-14T17:57:05.272Z,1012.14
2023-05-14T17:58:49.879Z,1012.19
2023-05-14T18:00:34.936Z,1012.21
2023-05-14T18:02:20.250Z,1012.17
2023-05-14T18:04:04.993Z,1012.16
2023-05-14T18:05:49.943Z,1012.21
2023-05-14T18:07:34.953Z,1012.15
2023-05-14T18:09:19.933Z,1012.23
2023-05-14T18:11:04.970Z,1012.17
2023-05-14T18:12:49.914Z,1012.1
2023-05-14T18:14:34.931Z,1012.23
2023-05-14T18:16:19.919Z,1012.17
2023-05-14T18:18:05.319Z,1012.21
2023-05-14T18:19:49.928Z,1012.18
2023-05-14T18:21:34.958Z,1012.16
2023-05-14T18:23:19.964Z,1012.24
2023-05-14T18:25:04.914Z,1012.26
2023-05-14T18:26:49.944Z,1012.2
2023-05-14T18:28:35.025Z,1012.27
2023-05-14T18:30:19.960Z,1012.25
2023-05-14T18:32:04.952Z,1012.22
2023-05-14T18:33:49.983Z,1012.24
2023-05-14T18:35:34.956Z,1012.2
2023-05-14T18:37:19.961Z,1012.21
2023-05-14T18:39:05.056Z,1012.18
2023-05-14T18:40:50.240Z,1012.18
2023-05-14T18:42:34.956Z,1012.19
2023-05-14T18:44:20.044Z,1012.23
2023-05-14T18:46:04.985Z,1012.27
2023-05-14T18:47:50.295Z,1012.3
2023-05-14T18:49:35.041Z,1012.21
2023-05-14T18:51:19.959Z,1012.24
2023-05-14T18:53:04.978Z,1012.31
2023-05-14T18:54:50.072Z,1012.3
2023-05-14T18:56:35.017Z,1012.38
2023-05-14T18:58:19.976Z,1012.32
2023-05-14T19:00:05.030Z,1012.42
2023-05-14T19:01:50.016Z,1012.31
2023-05-14T19:03:35.031Z,1012.2
2023-05-14T19:05:20.029Z,1012.35
2023-05-14T19:07:05.006Z,1012.33
2023-05-14T19:08:49.992Z,1012.27
2023-05-14T19:10:35.060Z,1012.28
2023-05-14T19:12:19.996Z,1012.26
2023-05-14T19:14:04.984Z,1012.32
2023-05-14T19:15:50.065Z,1012.31
2023-05-14T19:17:35.036Z,1012.31
2023-05-14T19:19:20.015Z,1012.32
2023-05-14T19:21:05.017Z,1012.34
2023-05-14T19:22:50.000Z,1012.34
2023-05-14T19:24:35.029Z,1012.26
2023-05-14T19:26:20.066Z,1012.24
2023-05-14T19:28:05.019Z,1012.29
2023-05-14T19:29:50.008Z,1012.27
2023-05-14T19:31:35.092Z,1012.3
2023-05-14T19:33:20.028Z,1012.3
2023-05-14T19:35:05.325Z,1012.32
2023-05-14T19:36:50.084Z,1012.36
2023-05-14T19:38:35.048Z,1012.37
2023-05-14T19:40:20.093Z,1012.34
2023-05-14T19:42:05.131Z,1012.33
2023-05-14T19:43:50.053Z,1012.4
2023-05-14T19:45:35.032Z,1012.38
2023-05-14T19:47:20.120Z,1012.37
2023-05-14T19:49:05.040Z,1012.42
2023-05-14T19:50:50.046Z,1012.4
2023-05-14T19:52:35.089Z,1012.44
2023-05-14T19:54:20.053Z,1012.42
2023-05-14T19:56:05.059Z,1012.35
2023-05-14T19:57:50.138Z,1012.45
2023-05-14T19:59:35.064Z,1012.47
2023-05-14T20:01:20.464Z,1012.55
2023-05-14T20:03:05.256Z,1012.49
2023-05-14T20:04:50.069Z,1012.5
2023-05-14T20:06:35.084Z,1012.43
2023-05-14T20:08:20.098Z,1012.47
2023-05-14T20:10:05.055Z,1012.4
2023-05-14T20:11:50.066Z,1012.47
2023-05-14T20:13:35.117Z,1012.46
2023-05-14T20:15:20.072Z,1012.47
2023-05-14T20:17:05.129Z,1012.48
2023-05-14T20:18:50.094Z,1012.43
2023-05-14T20:20:35.055Z,1012.42
2023-05-14T20:22:20.057Z,1012.39
2023-05-14T20:24:05.094Z,1012.45
2023-05-14T20:25:50.164Z,1012.52
2023-05-14T20:27:35.116Z,1012.34
2023-05-14T20:29:20.087Z,1012.39
2023-05-14T20:31:05.100Z,1012.37
2023-05-14T20:32:50.167Z,1012.38
2023-05-14T20:34:35.114Z,1012.34
2023-05-14T20:36:20.116Z,1012.4
2023-05-14T20:38:05.116Z,1012.45
2023-05-14T20:39:50.173Z,1012.35
2023-05-14T20:41:35.122Z,1012.43
2023-05-14T20:43:20.121Z,1012.36
2023-05-14T20:45:05.219Z,1012.38
2023-05-14T20:46:50.133Z,1012.39
2023-05-14T20:48:35.125Z,1012.38
2023-05-14T20:50:20.187Z,1012.35
2023-05-14T20:52:05.111Z,1012.49
2023-05-14T20:53:50.100Z,1012.4
2023-05-14T20:55:35.424Z,1012.51
2023-05-14T20:57:20.122Z,1012.44
2023-05-14T20:59:05.186Z,1012.37
2023-05-14T21:00:50.119Z,1012.32
2023-05-14T21:02:35.336Z,1012.31
2023-05-14T21:04:20.388Z,1012.38
2023-05-14T21:06:05.143Z,1012.38
2023-05-14T21:07:50.191Z,1012.24
2023-05-14T21:09:35.157Z,1012.3
2023-05-14T21:11:20.110Z,1012.25
2023-05-14T21:13:05.158Z,1012.29
2023-05-14T21:14:50.188Z,1012.23
2023-05-14T21:16:35.173Z,1012.27